Time;durP1;ratioP1;P1;durP2;ratioP2;P2;SDS_P1;SDS_P2;PMS_P1;PMS_P2;Temp;Humidity;BMP_temperature;BMP_pressure;BME280_temperature;BME280_humidity;BME280_pressure;Samples;Min_cycle;Max_cycle;Signal;HPM_P1;HPM_P2
2021/03/01 00:00:23;;;;;;;35.42;20.83;;;6.00;99.90;;;;;;5020572;28;20393;-91
2021/03/01 00:02:55;;;;;;;33.92;19.48;;;6.00;99.90;;;;;;5018696;28;20227;-91
2021/03/01 00:05:26;;;;;;;35.90;20.33;;;6.00;99.90;;;;;;5014836;28;20060;-91
2021/03/01 00:07:56;;;;;;;36.92;20.50;;;6.00;99.90;;;;;;5022366;28;20049;-91
2021/03/01 00:10:28;;;;;;;31.88;19.98;;;6.00;99.90;;;;;;5022466;28;20125;-91
2021/03/01 00:12:59;;;;;;;35.15;19.60;;;6.00;99.90;;;;;;5043408;28;20056;-91
2021/03/01 00:15:30;;;;;;;32.03;19.38;;;6.00;99.90;;;;;;5020220;28;20071;-90
2021/03/01 00:18:01;;;;;;;32.83;19.27;;;6.00;99.90;;;;;;5023970;28;20372;-91
2021/03/01 00:20:33;;;;;;;32.42;18.92;;;6.00;99.90;;;;;;5027372;28;20060;-91
2021/03/01 00:23:03;;;;;;;31.98;19.13;;;6.00;99.90;;;;;;5024249;28;20096;-91
2021/03/01 00:25:35;;;;;;;32.72;18.80;;;6.00;99.90;;;;;;5023923;28;20125;-91
2021/03/01 00:28:08;;;;;;;27.92;20.25;;;6.00;99.90;;;;;;5026311;28;20543;-91
2021/03/01 00:30:39;;;;;;;32.35;18.98;;;6.00;99.90;;;;;;5016599;28;20049;-90
2021/03/01 00:33:08;;;;;;;32.92;18.85;;;6.00;99.90;;;;;;5036847;28;20042;-91
2021/03/01 00:35:39;;;;;;;27.70;18.40;;;6.00;99.90;;;;;;5026094;28;20081;-91
2021/03/01 00:38:09;;;;;;;30.38;19.15;;;6.00;99.90;;;;;;5016999;28;20045;-91
2021/03/01 00:40:38;;;;;;;;;;;6.00;99.90;;;;;;5026647;28;20046;-91
2021/03/01 00:43:09;;;;;;;32.38;18.27;;;6.00;99.90;;;;;;5015653;28;19921;-91
2021/03/01 00:45:40;;;;;;;31.73;19.10;;;6.00;99.90;;;;;;5025859;28;20179;-91
2021/03/01 00:48:10;;;;;;;35.72;18.70;;;6.00;99.90;;;;;;5015125;28;20042;-91
2021/03/01 00:50:42;;;;;;;33.03;18.63;;;6.00;99.90;;;;;;5009181;28;20046;-91
2021/03/01 00:53:20;;;;;;;31.65;18.88;;;6.00;99.90;;;;;;5017596;28;20046;-91
2021/03/01 00:55:51;;;;;;;34.75;19.38;;;6.00;99.90;;;;;;5020697;28;20060;-91
2021/03/01 00:58:22;;;;;;;33.97;18.73;;;6.00;99.90;;;;;;5022743;28;20439;-91
2021/03/01 01:00:53;;;;;;;25.52;18.13;;;6.00;99.90;;;;;;5043723;28;20072;-90
2021/03/01 01:03:23;;;;;;;29.60;18.00;;;6.00;99.90;;;;;;5020056;28;20045;-90
2021/03/01 01:05:52;;;;;;;29.90;17.83;;;6.00;99.90;;;;;;5026109;28;20072;-90
2021/03/01 01:08:23;;;;;;;;;;;6.00;99.90;;;;;;5012509;28;20046;-90
2021/03/01 01:10:52;;;;;;;31.17;17.92;;;6.00;99.90;;;;;;5027274;28;19983;-90
2021/03/01 01:13:22;;;;;;;36.28;17.70;;;6.00;99.90;;;;;;5021959;28;20045;-90
2021/03/01 01:15:51;;;;;;;31.55;17.90;;;6.00;99.90;;;;;;5038766;28;20475;-90
2021/03/01 01:18:21;;;;;;;28.60;16.95;;;6.00;99.90;;;;;;5019803;28;20041;-89
2021/03/01 01:20:51;;;;;;;33.53;18.08;;;6.00;99.90;;;;;;5026563;28;20057;-90
2021/03/01 01:23:22;;;;;;;29.58;18.08;;;6.00;99.90;;;;;;5020883;28;20053;-91
2021/03/01 01:25:52;;;;;;;27.90;18.08;;;6.00;99.90;;;;;;5013640;28;20052;-90
2021/03/01 01:28:22;;;;;;;27.98;18.13;;;6.00;99.90;;;;;;5022910;28;20073;-90
2021/03/01 01:30:51;;;;;;;33.55;18.02;;;6.00;99.90;;;;;;5040923;28;20045;-90
2021/03/01 01:33:21;;;;;;;37.38;19.38;;;6.00;99.90;;;;;;5023050;28;20049;-90
2021/03/01 01:35:50;;;;;;;28.65;18.55;;;6.00;99.90;;;;;;5021763;28;20077;-90
2021/03/01 01:38:18;;;;;;;;;;;6.00;99.90;;;;;;5023478;28;20124;-90
2021/03/01 01:40:48;;;;;;;31.63;17.83;;;6.00;99.90;;;;;;5026070;28;19928;-90
2021/03/01 01:43:16;;;;;;;;;;;6.00;99.90;;;;;;5029297;28;20399;-90
2021/03/01 01:45:46;;;;;;;26.98;17.63;;;6.00;99.90;;;;;;5019704;28;20007;-90
2021/03/01 01:48:17;;;;;;;28.48;17.45;;;6.00;99.90;;;;;;5011769;28;20140;-90
2021/03/01 01:50:47;;;;;;;27.42;17.35;;;5.90;99.90;;;;;;5018089;28;20045;-90
2021/03/01 01:53:18;;;;;;;27.80;17.60;;;5.90;99.90;;;;;;5020774;28;20420;-90
2021/03/01 01:55:50;;;;;;;26.90;18.02;;;5.90;99.90;;;;;;5006476;28;20099;-90
2021/03/01 01:58:20;;;;;;;25.83;17.58;;;5.90;99.90;;;;;;5037070;28;20045;-90
2021/03/01 02:00:53;;;;;;;25.98;17.98;;;5.80;99.90;;;;;;5016401;28;20049;-90
2021/03/01 02:03:59;;;;;;;25.25;17.70;;;5.80;99.90;;;;;;5015039;28;20051;-90
2021/03/01 02:06:56;;;;;;;24.77;17.42;;;5.80;99.90;;;;;;5015932;28;20051;-90
2021/03/01 02:10:00;;;;;;;26.80;17.92;;;5.80;99.90;;;;;;5019646;28;20052;-90
2021/03/01 02:12:47;;;;;;;25.75;17.48;;;5.80;99.90;;;;;;5021335;28;20049;-91
2021/03/01 02:15:23;;;;;;;27.98;17.77;;;5.80;99.90;;;;;;5020941;28;20042;-90
2021/03/01 02:17:53;;;;;;;27.98;17.42;;;5.80;99.90;;;;;;5021026;28;20049;-90
2021/03/01 02:20:23;;;;;;;26.20;17.33;;;5.70;99.90;;;;;;5021898;28;20046;-90
2021/03/01 02:22:54;;;;;;;27.55;17.65;;;5.80;99.90;;;;;;5025237;28;20045;-90
2021/03/01 02:25:28;;;;;;;24.08;16.40;;;5.70;99.90;;;;;;5017928;28;20495;-90
2021/03/01 02:28:05;;;;;;;24.83;17.13;;;5.70;99.90;;;;;;5019872;28;20041;-91
2021/03/01 02:30:36;;;;;;;31.73;18.40;;;5.70;99.90;;;;;;5021821;28;20073;-90
2021/03/01 02:33:12;;;;;;;28.48;17.33;;;5.70;99.90;;;;;;5016656;28;20497;-90
2021/03/01 02:35:46;;;;;;;27.88;17.10;;;5.70;99.90;;;;;;5023824;28;20530;-90
2021/03/01 02:38:20;;;;;;;28.90;17.98;;;5.60;99.90;;;;;;5019960;28;20055;-90
2021/03/01 02:40:51;;;;;;;23.50;17.30;;;5.60;99.90;;;;;;5012040;28;20065;-90
2021/03/01 02:43:22;;;;;;;30.10;18.75;;;5.60;99.90;;;;;;5019157;28;20135;-91
2021/03/01 02:45:54;;;;;;;27.75;17.05;;;5.60;99.90;;;;;;5047231;28;20040;-90
2021/03/01 02:48:25;;;;;;;28.05;17.50;;;5.60;99.90;;;;;;5020659;28;20053;-90
2021/03/01 02:50:56;;;;;;;26.38;17.40;;;5.50;99.90;;;;;;5027840;28;20041;-90
2021/03/01 02:53:28;;;;;;;25.35;17.08;;;5.50;99.90;;;;;;5026742;28;20045;-91
2021/03/01 02:56:00;;;;;;;25.65;17.98;;;5.50;99.90;;;;;;5025267;28;20542;-90
2021/03/01 02:58:32;;;;;;;27.23;17.88;;;5.40;99.90;;;;;;5018048;28;20068;-91
2021/03/01 03:01:03;;;;;;;26.58;16.83;;;5.40;99.90;;;;;;5037541;28;20052;-90
2021/03/01 03:03:36;;;;;;;26.70;17.85;;;5.40;99.90;;;;;;5022385;28;20046;-91
2021/03/01 03:06:10;;;;;;;30.90;18.52;;;5.40;99.90;;;;;;5021730;28;20045;-90
2021/03/01 03:08:43;;;;;;;26.63;17.95;;;5.40;99.90;;;;;;5024874;28;20115;-90
2021/03/01 03:11:13;;;;;;;29.70;18.85;;;5.30;99.90;;;;;;5019018;28;20042;-90
2021/03/01 03:13:45;;;;;;;28.35;18.27;;;5.30;99.90;;;;;;5028077;28;20113;-91
2021/03/01 03:16:16;;;;;;;34.38;19.38;;;5.30;99.90;;;;;;5020722;28;20041;-91
2021/03/01 03:18:47;;;;;;;28.45;18.20;;;5.30;99.90;;;;;;5022223;28;20095;-90
2021/03/01 03:21:16;;;;;;;27.27;18.33;;;5.20;99.90;;;;;;5027282;28;20156;-91
2021/03/01 03:23:46;;;;;;;29.60;18.15;;;5.20;99.90;;;;;;5025982;28;20052;-91
2021/03/01 03:26:16;;;;;;;28.77;17.92;;;5.20;99.90;;;;;;5022001;28;20045;-91
2021/03/01 03:28:47;;;;;;;28.63;17.92;;;5.20;99.90;;;;;;5031192;28;20053;-92
2021/03/01 03:31:19;;;;;;;28.25;18.85;;;5.20;99.90;;;;;;5021218;28;20095;-91
2021/03/01 03:33:51;;;;;;;36.25;18.88;;;5.10;99.90;;;;;;5030053;28;20045;-91
2021/03/01 03:36:23;;;;;;;25.65;17.88;;;5.10;99.90;;;;;;5025130;28;20049;-91
2021/03/01 03:38:58;;;;;;;24.15;17.60;;;5.10;99.90;;;;;;5028575;28;20038;-91
2021/03/01 03:41:28;;;;;;;25.95;17.67;;;5.10;99.90;;;;;;5019600;28;20090;-91
2021/03/01 03:44:00;;;;;;;32.60;19.25;;;5.10;99.90;;;;;;5026512;28;20041;-90
2021/03/01 03:46:31;;;;;;;27.90;17.95;;;5.10;99.90;;;;;;5025581;28;20042;-91
2021/03/01 03:49:04;;;;;;;28.63;18.40;;;5.10;99.90;;;;;;5023136;28;20128;-91
2021/03/01 03:51:37;;;;;;;29.98;18.75;;;5.00;99.90;;;;;;5014669;28;20387;-91
2021/03/01 03:54:15;;;;;;;28.38;18.25;;;5.00;99.90;;;;;;5014862;28;20050;-91
2021/03/01 03:56:54;;;;;;;27.20;18.20;;;5.00;99.90;;;;;;5028741;28;20069;-91
2021/03/01 03:59:30;;;;;;;29.08;17.77;;;5.00;99.90;;;;;;5015918;28;20053;-91
2021/03/01 04:01:59;;;;;;;28.30;18.13;;;5.00;99.90;;;;;;5030727;28;20049;-91
2021/03/01 04:04:32;;;;;;;26.60;16.95;;;5.00;99.90;;;;;;5023120;28;20049;-91
2021/03/01 04:07:02;;;;;;;27.23;17.20;;;5.00;99.90;;;;;;5017596;28;20049;-91
2021/03/01 04:09:35;;;;;;;29.20;18.77;;;5.00;99.90;;;;;;5023347;28;20041;-90
2021/03/01 04:12:06;;;;;;;30.00;18.27;;;5.00;99.90;;;;;;5025283;28;20501;-90
2021/03/01 04:14:36;;;;;;;28.92;17.52;;;5.00;99.90;;;;;;5040220;28;20045;-91
2021/03/01 04:17:13;;;;;;;30.20;17.95;;;4.90;99.90;;;;;;5020436;28;20209;-90
2021/03/01 04:19:44;;;;;;;31.48;18.92;;;5.00;99.90;;;;;;5023925;28;20123;-90
2021/03/01 04:22:15;;;;;;;30.80;19.13;;;4.90;99.90;;;;;;5018208;28;20188;-90
2021/03/01 04:24:46;;;;;;;33.75;19.10;;;4.90;99.90;;;;;;5023238;28;20052;-90
2021/03/01 04:27:17;;;;;;;29.70;18.67;;;4.90;99.90;;;;;;5025701;28;20044;-91
2021/03/01 04:29:49;;;;;;;30.20;18.95;;;4.90;99.90;;;;;;5027611;28;20052;-91
2021/03/01 04:32:20;;;;;;;28.52;17.75;;;4.90;99.90;;;;;;5024308;28;20069;-91
2021/03/01 04:34:52;;;;;;;31.30;18.70;;;4.90;99.90;;;;;;5020837;28;20143;-91
2021/03/01 04:37:25;;;;;;;28.13;18.65;;;4.90;99.90;;;;;;5032284;28;20050;-91
2021/03/01 04:39:55;;;;;;;31.90;20.45;;;4.80;99.90;;;;;;5041747;28;20051;-90
2021/03/01 04:42:28;;;;;;;29.23;18.75;;;4.80;99.90;;;;;;5022913;28;20374;-91
2021/03/01 04:44:59;;;;;;;29.50;18.17;;;4.80;99.90;;;;;;5022045;28;20044;-91
2021/03/01 04:47:30;;;;;;;29.17;19.63;;;4.80;99.90;;;;;;5018315;28;20045;-91
2021/03/01 04:50:02;;;;;;;29.45;18.88;;;4.80;99.90;;;;;;5020742;28;20095;-91
2021/03/01 04:52:34;;;;;;;31.80;18.70;;;4.80;99.90;;;;;;5006151;28;20079;-91
2021/03/01 04:55:07;;;;;;;31.58;18.73;;;4.80;99.90;;;;;;5009667;28;20045;-91
2021/03/01 04:57:39;;;;;;;30.65;19.45;;;4.70;99.90;;;;;;5013590;28;20469;-90
2021/03/01 05:00:11;;;;;;;30.45;18.92;;;4.70;99.90;;;;;;5025133;28;20041;-91
2021/03/01 05:02:44;;;;;;;34.25;19.38;;;4.70;99.90;;;;;;5022320;28;20046;-91
2021/03/01 05:05:16;;;;;;;26.27;17.98;;;4.70;99.90;;;;;;5020956;28;20368;-91
2021/03/01 05:07:47;;;;;;;33.90;18.58;;;4.70;99.90;;;;;;5023857;28;20385;-91
2021/03/01 05:10:20;;;;;;;32.83;20.15;;;4.70;99.90;;;;;;5032723;28;20049;-91
2021/03/01 05:12:50;;;;;;;28.02;18.60;;;4.70;99.90;;;;;;5009275;28;20409;-91
2021/03/01 05:15:21;;;;;;;29.08;19.83;;;4.60;99.90;;;;;;5015831;28;20049;-91
2021/03/01 05:17:52;;;;;;;30.08;18.27;;;4.70;99.90;;;;;;5018182;28;20127;-91
2021/03/01 05:20:21;;;;;;;27.48;19.27;;;4.60;99.90;;;;;;5013698;28;20045;-91
2021/03/01 05:22:52;;;;;;;34.20;19.08;;;4.70;99.90;;;;;;5026801;28;20514;-91
2021/03/01 05:25:22;;;;;;;31.15;18.70;;;4.60;99.90;;;;;;5015947;28;20455;-91
2021/03/01 05:27:54;;;;;;;29.55;18.73;;;4.60;99.90;;;;;;5041404;28;20095;-91
2021/03/01 05:30:24;;;;;;;35.20;20.17;;;4.60;99.90;;;;;;5019133;28;20061;-91
2021/03/01 05:32:56;;;;;;;28.67;18.52;;;4.60;99.90;;;;;;5022883;28;20129;-91
2021/03/01 05:35:26;;;;;;;35.08;19.42;;;4.60;99.90;;;;;;5023529;28;20059;-91
2021/03/01 05:37:58;;;;;;;29.75;18.75;;;4.60;99.90;;;;;;5017415;28;20050;-90
2021/03/01 05:40:29;;;;;;;31.45;18.45;;;4.60;99.90;;;;;;5036011;28;20041;-91
2021/03/01 05:43:00;;;;;;;29.67;19.13;;;4.60;99.90;;;;;;5022498;28;20060;-91
2021/03/01 05:45:31;;;;;;;33.33;18.83;;;4.60;99.90;;;;;;5008752;28;20468;-91
2021/03/01 05:48:03;;;;;;;28.58;18.02;;;4.60;99.90;;;;;;5010953;28;20045;-91
2021/03/01 05:50:34;;;;;;;28.13;18.30;;;4.60;99.90;;;;;;5016828;28;20046;-91
2021/03/01 05:53:12;;;;;;;32.10;18.88;;;4.60;99.90;;;;;;5037353;28;20073;-90
2021/03/01 05:55:42;;;;;;;31.92;19.25;;;4.60;99.90;;;;;;5025391;28;20049;-91
2021/03/01 05:58:14;;;;;;;29.13;19.20;;;4.60;99.90;;;;;;5020456;28;20041;-91
2021/03/01 06:00:45;;;;;;;27.70;18.52;;;4.60;99.90;;;;;;5027577;28;20096;-91
2021/03/01 06:03:17;;;;;;;32.50;18.27;;;4.50;99.90;;;;;;5018944;28;20045;-92
2021/03/01 06:05:48;;;;;;;31.75;18.50;;;4.50;99.90;;;;;;5025786;28;20391;-91
2021/03/01 06:08:20;;;;;;;30.55;19.38;;;4.50;99.90;;;;;;5018960;28;20053;-92
2021/03/01 06:11:00;;;;;;;28.75;17.83;;;4.50;99.90;;;;;;5002794;28;20045;-91
2021/03/01 06:13:30;;;;;;;30.83;19.45;;;4.50;99.90;;;;;;5020200;28;20455;-91
2021/03/01 06:16:02;;;;;;;34.97;19.15;;;4.50;99.90;;;;;;5038773;28;20041;-90
2021/03/01 06:18:42;;;;;;;35.75;18.08;;;4.50;99.90;;;;;;5012771;28;20552;-91
2021/03/01 06:21:22;;;;;;;31.25;18.73;;;4.50;99.90;;;;;;5018614;28;20037;-90
2021/03/01 06:23:53;;;;;;;32.17;18.73;;;4.50;99.90;;;;;;5009711;28;20049;-91
2021/03/01 06:26:30;;;;;;;36.92;18.05;;;4.50;99.90;;;;;;5014456;28;20140;-91
2021/03/01 06:29:02;;;;;;;34.20;19.17;;;4.50;99.90;;;;;;5014934;28;20049;-91
2021/03/01 06:31:41;;;;;;;28.80;18.33;;;4.50;99.90;;;;;;5021852;28;20379;-91
2021/03/01 06:34:18;;;;;;;32.03;19.58;;;4.50;99.90;;;;;;5033363;28;20505;-91
2021/03/01 06:37:17;;;;;;;29.25;19.40;;;4.50;99.90;;;;;;5022597;28;20121;-91
2021/03/01 06:39:52;;;;;;;29.45;17.95;;;4.50;99.90;;;;;;5013821;28;20055;-90
2021/03/01 06:42:25;;;;;;;26.33;17.13;;;4.60;99.90;;;;;;5018758;28;20080;-91
2021/03/01 06:44:58;;;;;;;29.25;18.25;;;4.50;99.90;;;;;;5017353;28;20045;-91
2021/03/01 06:47:47;;;;;;;32.05;19.05;;;4.60;99.90;;;;;;5019575;28;20064;-91
2021/03/01 06:50:36;;;;;;;27.60;18.63;;;4.50;99.90;;;;;;5012820;28;20108;-91
2021/03/01 06:53:12;;;;;;;27.00;17.55;;;4.60;99.90;;;;;;5002156;28;20037;-90
2021/03/01 06:56:11;;;;;;;29.30;18.70;;;4.50;99.90;;;;;;5019463;28;20133;-93
2021/03/01 06:58:47;;;;;;;29.88;17.75;;;4.60;99.90;;;;;;5014036;28;20061;-91
2021/03/01 07:01:22;;;;;;;29.15;18.10;;;4.50;99.90;;;;;;5003599;28;20068;-91
2021/03/01 07:04:01;;;;;;;28.38;18.17;;;4.50;99.90;;;;;;5019313;28;20103;-91
2021/03/01 07:06:36;;;;;;;28.05;18.10;;;4.50;99.90;;;;;;5015000;28;20452;-92
2021/03/01 07:09:19;;;;;;;32.67;19.10;;;4.60;99.90;;;;;;5017802;28;20111;-91
2021/03/01 07:11:49;;;;;;;29.95;18.60;;;4.50;99.90;;;;;;5017750;28;20550;-91
2021/03/01 07:14:27;;;;;;;26.38;18.10;;;4.50;99.90;;;;;;5030441;28;20045;-91
2021/03/01 07:16:59;;;;;;;25.95;18.15;;;4.60;99.90;;;;;;5028955;28;20054;-90
2021/03/01 07:19:33;;;;;;;31.92;19.13;;;4.60;99.90;;;;;;5036585;28;20048;-90
2021/03/01 07:22:08;;;;;;;33.65;18.45;;;4.60;99.90;;;;;;5019252;28;20065;-91
2021/03/01 07:24:39;;;;;;;26.92;18.45;;;4.60;99.90;;;;;;5035161;28;20037;-91
2021/03/01 07:27:10;;;;;;;28.73;17.73;;;4.70;99.90;;;;;;5016227;28;20042;-91
2021/03/01 07:29:45;;;;;;;28.10;18.20;;;4.70;99.90;;;;;;5023269;28;20042;-91
2021/03/01 07:32:21;;;;;;;31.67;17.40;;;4.70;99.90;;;;;;5023626;28;20047;-91
2021/03/01 07:34:52;;;;;;;29.02;17.95;;;4.80;99.90;;;;;;5012351;28;20092;-91
2021/03/01 07:37:23;;;;;;;29.23;18.08;;;4.80;99.90;;;;;;5012051;28;20053;-91
2021/03/01 07:39:55;;;;;;;29.27;17.48;;;4.80;99.90;;;;;;5024401;28;20099;-91
2021/03/01 07:42:29;;;;;;;37.60;18.85;;;4.90;99.90;;;;;;5013675;28;20053;-91
2021/03/01 07:45:01;;;;;;;27.85;18.67;;;4.90;99.90;;;;;;5038439;28;20045;-92
2021/03/01 07:47:32;;;;;;;26.67;17.67;;;5.00;99.90;;;;;;5020648;28;20045;-91
2021/03/01 07:50:04;;;;;;;30.35;17.80;;;5.00;99.90;;;;;;5011748;28;20045;-91
2021/03/01 07:52:37;;;;;;;26.27;17.45;;;5.10;99.90;;;;;;5034368;28;20102;-91
2021/03/01 07:55:22;;;;;;;32.15;17.95;;;5.20;99.90;;;;;;5031046;28;20053;-91
2021/03/01 07:58:06;;;;;;;27.77;17.30;;;5.20;99.90;;;;;;5010986;28;20046;-91
2021/03/01 08:00:39;;;;;;;28.70;17.27;;;5.30;99.90;;;;;;5023134;28;20475;-91
2021/03/01 08:03:37;;;;;;;30.08;17.73;;;5.40;99.90;;;;;;5017649;28;20041;-91
2021/03/01 08:06:09;;;;;;;28.90;17.95;;;5.40;99.90;;;;;;5021416;28;20123;-91
2021/03/01 08:08:45;;;;;;;23.92;17.20;;;5.50;99.90;;;;;;5022121;28;20072;-91
2021/03/01 08:11:36;;;;;;;25.85;16.77;;;5.60;99.90;;;;;;5016742;28;20045;-91
2021/03/01 08:14:43;;;;;;;25.75;16.50;;;5.70;99.90;;;;;;5020135;28;20142;-91
2021/03/01 08:17:35;;;;;;;22.83;16.45;;;5.80;99.90;;;;;;5024745;28;20045;-91
2021/03/01 08:20:16;;;;;;;22.38;16.05;;;5.90;99.90;;;;;;5005134;28;20410;-91
2021/03/01 08:23:12;;;;;;;25.02;15.57;;;6.10;99.90;;;;;;5016226;28;20041;-91
2021/03/01 08:25:46;;;;;;;27.63;16.60;;;6.10;99.90;;;;;;5024888;28;20132;-91
2021/03/01 08:28:17;;;;;;;24.52;16.52;;;6.30;99.90;;;;;;5015155;28;20391;-92
2021/03/01 08:30:56;;;;;;;26.88;18.63;;;6.40;99.90;;;;;;5022148;28;20044;-92
2021/03/01 08:33:26;;;;;;;;;;;6.50;99.90;;;;;;5007825;28;20146;-91
2021/03/01 08:36:03;;;;;;;29.58;18.42;;;6.60;99.90;;;;;;5023306;28;19928;-92
2021/03/01 08:38:45;;;;;;;22.67;17.27;;;6.70;99.90;;;;;;5011131;28;20046;-94
2021/03/01 08:41:18;;;;;;;26.73;17.27;;;6.80;99.90;;;;;;5032111;28;20115;-91
2021/03/01 08:43:53;;;;;;;25.00;17.02;;;6.90;99.90;;;;;;5019661;28;20072;-92
2021/03/01 08:46:25;;;;;;;21.85;15.80;;;7.00;99.90;;;;;;5030180;28;20045;-92
2021/03/01 08:48:59;;;;;;;23.02;14.75;;;7.20;99.90;;;;;;5024176;28;20099;-91
2021/03/01 08:51:36;;;;;;;22.17;15.20;;;7.30;99.90;;;;;;5021450;28;20052;-92
2021/03/01 08:54:09;;;;;;;21.77;15.27;;;7.40;99.90;;;;;;5011126;28;20479;-92
2021/03/01 08:56:43;;;;;;;25.35;15.30;;;7.50;99.90;;;;;;5024626;28;20462;-93
2021/03/01 08:59:22;;;;;;;23.65;14.98;;;7.60;99.90;;;;;;5004046;28;20049;-93
2021/03/01 09:01:55;;;;;;;19.67;14.10;;;7.80;99.90;;;;;;5018167;28;20058;-92
2021/03/01 09:04:29;;;;;;;19.80;14.07;;;7.90;99.90;;;;;;5015281;28;20155;-93
2021/03/01 09:07:09;;;;;;;19.83;14.05;;;8.00;99.90;;;;;;5016259;28;20061;-93
2021/03/01 09:09:52;;;;;;;20.20;15.68;;;8.10;99.90;;;;;;5008190;28;20038;-93
2021/03/01 09:12:25;;;;;;;24.35;14.98;;;8.20;99.90;;;;;;5008869;28;20079;-93
2021/03/01 09:14:57;;;;;;;18.25;14.23;;;8.30;99.90;;;;;;5018250;28;20414;-93
2021/03/01 09:17:30;;;;;;;24.50;15.20;;;8.40;99.90;;;;;;5010905;28;20045;-93
2021/03/01 09:20:02;;;;;;;22.23;14.98;;;8.60;99.90;;;;;;5016966;28;20049;-93
2021/03/01 09:22:45;;;;;;;21.33;14.93;;;8.70;99.90;;;;;;5018422;28;20052;-93
2021/03/01 09:25:33;;;;;;;21.95;13.38;;;8.80;99.90;;;;;;5013622;28;20048;-92
2021/03/01 09:28:06;;;;;;;20.48;14.23;;;8.90;99.90;;;;;;5013936;28;20399;-93
2021/03/01 09:30:38;;;;;;;23.10;14.63;;;9.00;99.90;;;;;;5021692;28;20067;-93
2021/03/01 09:33:13;;;;;;;20.40;13.57;;;9.10;99.90;;;;;;5003309;28;20041;-93
2021/03/01 09:35:52;;;;;;;18.05;12.90;;;9.20;99.90;;;;;;5012399;28;20056;-93
2021/03/01 09:38:26;;;;;;;21.88;13.10;;;9.30;99.90;;;;;;5002965;28;20045;-93
2021/03/01 09:41:07;;;;;;;19.25;13.30;;;9.40;99.90;;;;;;5028101;28;20155;-93
2021/03/01 09:43:44;;;;;;;19.67;13.75;;;9.60;99.90;;;;;;5026000;28;20037;-93
2021/03/01 09:46:18;;;;;;;20.02;12.98;;;9.70;99.90;;;;;;5016618;28;20053;-93
2021/03/01 09:48:54;;;;;;;19.42;14.27;;;9.70;99.90;;;;;;5029305;28;20053;-93
2021/03/01 09:51:28;;;;;;;19.48;12.75;;;9.90;99.90;;;;;;5035254;28;20053;-93
2021/03/01 09:54:08;;;;;;;24.20;13.88;;;10.00;99.90;;;;;;5028387;28;20041;-93
2021/03/01 09:56:52;;;;;;;21.77;13.57;;;10.10;99.90;;;;;;5006827;28;20037;-94
2021/03/01 09:59:37;;;;;;;19.13;13.27;;;10.20;99.90;;;;;;5004664;28;20057;-93
2021/03/01 10:02:25;;;;;;;24.65;13.02;;;10.30;99.90;;;;;;5018027;28;20537;-92
2021/03/01 10:05:13;;;;;;;17.77;11.85;;;10.50;99.90;;;;;;4994268;28;20056;-94
2021/03/01 10:07:55;;;;;;;19.65;11.23;;;10.60;99.90;;;;;;5004051;28;20053;-94
2021/03/01 10:10:39;;;;;;;15.32;10.63;;;10.70;99.90;;;;;;4986879;28;20052;-92
2021/03/01 10:13:24;;;;;;;19.08;11.13;;;10.80;99.90;;;;;;5022074;28;20140;-94
2021/03/01 10:15:55;;;;;;;16.80;10.60;;;10.90;99.90;;;;;;5007342;28;20124;-89
2021/03/01 10:18:29;;;;;;;24.13;10.93;;;11.00;99.90;;;;;;4976561;28;20566;-94
2021/03/01 10:21:04;;;;;;;17.48;10.93;;;11.20;99.90;;;;;;5016504;28;20042;-93
2021/03/01 10:23:41;;;;;;;16.48;10.68;;;11.30;99.90;;;;;;5007445;28;20045;-93
2021/03/01 10:26:20;;;;;;;17.02;10.30;;;11.40;99.90;;;;;;5003707;28;20042;-93
2021/03/01 10:29:01;;;;;;;21.40;11.25;;;11.50;99.90;;;;;;5014126;28;20042;-93
2021/03/01 10:31:38;;;;;;;24.30;12.23;;;11.60;99.90;;;;;;5010735;28;20045;-93
2021/03/01 10:34:13;;;;;;;21.52;10.80;;;11.70;99.90;;;;;;5014534;28;20053;-93
2021/03/01 10:36:58;;;;;;;17.40;10.38;;;11.80;99.90;;;;;;5012726;28;20057;-93
2021/03/01 10:39:36;;;;;;;23.05;9.80;;;11.90;99.90;;;;;;5015575;28;20069;-93
2021/03/01 10:42:22;;;;;;;16.58;8.85;;;12.00;99.90;;;;;;5012447;28;20042;-93
2021/03/01 10:44:56;;;;;;;18.80;8.65;;;12.10;99.90;;;;;;5017075;28;20072;-93
2021/03/01 10:47:32;;;;;;;27.23;10.25;;;12.20;99.90;;;;;;5010251;28;20100;-93
2021/03/01 10:50:19;;;;;;;22.40;9.50;;;12.30;99.90;;;;;;5035446;28;20091;-93
2021/03/01 10:52:51;;;;;;;19.20;9.02;;;12.30;99.90;;;;;;5011204;28;20099;-93
2021/03/01 10:55:23;;;;;;;21.10;9.80;;;12.40;99.90;;;;;;4993500;28;20056;-93
2021/03/01 10:57:57;;;;;;;22.58;9.40;;;12.50;99.90;;;;;;5013099;28;20585;-93
2021/03/01 11:00:29;;;;;;;22.08;9.60;;;12.50;99.90;;;;;;4979505;28;20057;-93
2021/03/01 11:03:02;;;;;;;22.83;10.02;;;12.60;99.90;;;;;;5015588;28;20095;-93
2021/03/01 11:05:33;;;;;;;24.75;10.25;;;12.70;99.90;;;;;;5013386;28;20056;-93
2021/03/01 11:08:20;;;;;;;20.23;10.02;;;12.70;99.90;;;;;;5019810;28;20045;-92
2021/03/01 11:10:52;;;;;;;22.20;10.35;;;12.80;99.90;;;;;;5026257;28;20049;-92
2021/03/01 11:13:24;;;;;;;22.02;9.90;;;12.80;99.90;;;;;;5032297;28;20069;-93
2021/03/01 11:15:57;;;;;;;17.65;9.15;;;12.90;99.90;;;;;;5005039;28;20041;-93
2021/03/01 11:18:30;;;;;;;23.08;10.00;;;12.90;99.90;;;;;;5001020;28;20088;-93
2021/03/01 11:21:00;;;;;;;23.80;8.48;;;13.00;99.90;;;;;;5009129;28;20443;-93
2021/03/01 11:23:29;;;;;;;;;;;13.10;99.90;;;;;;5019329;28;20108;-92
2021/03/01 11:26:00;;;;;;;20.95;8.27;;;13.10;99.90;;;;;;5029256;28;19921;-92
2021/03/01 11:28:32;;;;;;;23.40;8.50;;;13.20;99.90;;;;;;5034812;28;20061;-92
2021/03/01 11:31:04;;;;;;;19.98;8.05;;;13.20;99.90;;;;;;5032597;28;20106;-93
2021/03/01 11:33:36;;;;;;;16.17;7.05;;;13.30;99.90;;;;;;5010443;28;20530;-92
2021/03/01 11:36:07;;;;;;;21.73;7.15;;;13.30;99.90;;;;;;5009123;28;20092;-92
2021/03/01 11:38:42;;;;;;;20.42;8.10;;;13.40;99.90;;;;;;5013690;28;20045;-93
2021/03/01 11:41:15;;;;;;;23.33;7.93;;;13.50;99.90;;;;;;5021620;28;20045;-93
2021/03/01 11:43:52;;;;;;;14.25;7.43;;;13.50;99.90;;;;;;5024546;28;20133;-93
2021/03/01 11:46:24;;;;;;;17.80;7.85;;;13.60;99.90;;;;;;5015247;28;20046;-93
2021/03/01 11:48:57;;;;;;;23.65;8.05;;;13.60;99.90;;;;;;5017752;28;20044;-93
2021/03/01 11:51:27;;;;;;;16.27;7.13;;;13.70;99.90;;;;;;5016398;28;20045;-93
2021/03/01 11:53:56;;;;;;;17.15;7.22;;;13.70;99.90;;;;;;5018521;28;20057;-92
2021/03/01 11:56:28;;;;;;;16.77;6.25;;;13.70;99.90;;;;;;5018683;28;20052;-93
2021/03/01 11:59:03;;;;;;;19.13;6.93;;;13.80;99.90;;;;;;5023401;28;20103;-92
2021/03/01 12:01:33;;;;;;;21.40;6.60;;;13.80;99.90;;;;;;5025813;28;20136;-92
2021/03/01 12:04:05;;;;;;;14.43;6.50;;;13.80;99.90;;;;;;5033942;28;20157;-92
2021/03/01 12:06:36;;;;;;;19.73;6.40;;;13.90;99.90;;;;;;5012935;28;20041;-92
2021/03/01 12:09:07;;;;;;;18.75;6.97;;;13.80;99.90;;;;;;5019548;28;20510;-92
2021/03/01 12:11:40;;;;;;;17.48;6.55;;;13.90;99.90;;;;;;5016095;28;20399;-92
2021/03/01 12:14:11;;;;;;;22.58;7.30;;;13.90;99.90;;;;;;5012629;28;20080;-93
2021/03/01 12:16:42;;;;;;;13.88;6.13;;;13.90;99.90;;;;;;5019138;28;20049;-93
2021/03/01 12:19:12;;;;;;;15.70;6.65;;;13.90;99.90;;;;;;5037502;28;20041;-92
2021/03/01 12:21:43;;;;;;;20.73;6.82;;;13.90;99.90;;;;;;5029515;28;20048;-92
2021/03/01 12:24:14;;;;;;;17.10;6.80;;;14.00;99.90;;;;;;5017991;28;20111;-93
2021/03/01 12:26:44;;;;;;;17.63;6.80;;;14.00;99.90;;;;;;5021515;28;20751;-93
2021/03/01 12:29:16;;;;;;;16.15;6.93;;;14.00;99.90;;;;;;5016438;28;20064;-92
2021/03/01 12:31:45;;;;;;;15.75;6.32;;;14.00;99.90;;;;;;5020040;28;20537;-92
2021/03/01 12:34:16;;;;;;;16.80;7.35;;;14.00;99.90;;;;;;5013368;28;20084;-93
2021/03/01 12:36:46;;;;;;;18.45;6.20;;;14.10;99.90;;;;;;5021740;28;20056;-91
2021/03/01 12:39:32;;;;;;;15.80;5.80;;;14.10;99.90;;;;;;5026315;28;20500;-90
2021/03/01 12:42:01;;;;;;;12.95;6.15;;;14.10;99.90;;;;;;5024241;28;20402;-93
2021/03/01 12:44:32;;;;;;;16.63;6.22;;;14.10;99.90;;;;;;5005141;28;20057;-93
2021/03/01 12:47:07;;;;;;;14.38;5.90;;;14.10;99.90;;;;;;5037543;28;20049;-93
2021/03/01 12:49:40;;;;;;;15.05;6.25;;;14.20;99.90;;;;;;5002603;28;20049;-93
2021/03/01 12:52:13;;;;;;;13.50;5.82;;;14.20;99.90;;;;;;5028241;28;20420;-93
2021/03/01 12:54:43;;;;;;;18.23;6.40;;;14.20;99.90;;;;;;5018604;28;20132;-94
2021/03/01 12:57:17;;;;;;;19.90;6.53;;;14.20;99.90;;;;;;5010787;28;20365;-93
2021/03/01 12:59:51;;;;;;;14.73;5.72;;;14.20;99.90;;;;;;5033004;28;20041;-93
2021/03/01 13:02:24;;;;;;;15.35;5.80;;;14.30;99.90;;;;;;5012238;28;20053;-93
2021/03/01 13:04:56;;;;;;;15.00;5.68;;;14.30;99.90;;;;;;5018476;28;20508;-93
2021/03/01 13:07:27;;;;;;;16.75;6.85;;;14.30;99.90;;;;;;5015908;28;20049;-93
2021/03/01 13:09:59;;;;;;;15.10;6.38;;;14.40;99.90;;;;;;5024899;28;20140;-91
2021/03/01 13:12:29;;;;;;;11.43;5.80;;;14.40;99.90;;;;;;5020150;28;20110;-93